Terminal Aerodrome Forecast
Issued by NWS

Home | Current Version | Previous Version | Graphics & Text | Print | Product List | Glossary Off
Versions: 1 2 3 4 5 6 7 8 9 10 11 12 13 14 15 16 17 18

000
FTUS43 KDDC 142045 AAE
TAFHYS
TAF AMD
KHYS 142045Z 1421/1518 31015G23KT P6SM BKN020
     FM150200 34027G34KT P6SM BKN030
     FM150700 34019G27KT P6SM FEW250
     FM150900 33009KT P6SM SKC=

USA.gov is the U.S. government's official web portal to all federal, state and local government web resources and services.